createdAt,value
2023-02-25T00:01:06.664Z,8.60
2023-02-25T00:06:13.879Z,8.60
2023-02-25T00:11:19.085Z,8.60
2023-02-25T00:16:23.743Z,8.70
2023-02-25T00:21:29.620Z,8.70
2023-02-25T00:26:32.731Z,8.70
2023-02-25T00:31:36.048Z,8.60
2023-02-25T00:36:40.993Z,8.60
2023-02-25T00:41:44.174Z,8.60
2023-02-25T00:46:47.289Z,8.50
2023-02-25T00:51:51.796Z,8.50
2023-02-25T00:56:55.383Z,8.50
2023-02-25T01:01:58.594Z,8.50
2023-02-25T01:07:03.827Z,8.50
2023-02-25T01:12:07.691Z,8.40
2023-02-25T01:17:10.766Z,8.40
2023-02-25T01:22:15.215Z,8.40
2023-02-25T01:27:18.287Z,8.40
2023-02-25T01:32:21.577Z,8.30
2023-02-25T01:37:26.103Z,8.30
2023-02-25T01:42:29.219Z,8.30
2023-02-25T01:47:36.170Z,8.30
2023-02-25T01:52:42.685Z,8.30
2023-02-25T01:57:45.781Z,8.30
2023-02-25T02:02:50.540Z,8.30
2023-02-25T02:07:55.223Z,8.20
2023-02-25T02:12:58.595Z,8.20
2023-02-25T02:18:04.111Z,8.20
2023-02-25T02:23:46.139Z,8.10
2023-02-25T02:29:28.358Z,8.10
2023-02-25T02:34:42.894Z,8.10
2023-02-25T02:39:54.409Z,8.00
2023-02-25T02:45:02.291Z,8.00
2023-02-25T02:50:11.068Z,8.00
2023-02-25T02:55:22.487Z,8.00
2023-02-25T03:00:31.808Z,8.00
2023-02-25T03:05:38.139Z,7.90
2023-02-25T03:10:41.598Z,7.90
2023-02-25T03:15:45.886Z,7.90
2023-02-25T03:20:51.835Z,7.90
2023-02-25T03:26:00.775Z,7.90
2023-02-25T03:31:09.377Z,7.80
2023-02-25T03:36:18.141Z,7.80
2023-02-25T03:41:26.297Z,7.80
2023-02-25T03:46:30.507Z,7.80
2023-02-25T03:51:36.940Z,7.70
2023-02-25T03:56:45.549Z,7.70
2023-02-25T04:01:51.850Z,7.70
2023-02-25T04:06:56.434Z,7.60
2023-02-25T04:11:59.514Z,7.60
2023-02-25T04:17:04.699Z,7.60
2023-02-25T04:22:09.228Z,7.70
2023-02-25T04:27:15.610Z,7.70
2023-02-25T04:32:18.856Z,7.70
2023-02-25T04:37:23.395Z,7.80
2023-02-25T04:42:26.592Z,7.80
2023-02-25T04:47:29.650Z,7.70
2023-02-25T04:52:34.071Z,7.70
2023-02-25T04:57:42.725Z,7.60
2023-02-25T05:02:46.160Z,7.50
2023-02-25T05:07:50.611Z,7.50
2023-02-25T05:12:53.693Z,7.50
2023-02-25T05:17:56.961Z,7.50
2023-02-25T05:23:01.409Z,7.50
2023-02-25T05:28:06.491Z,7.50
2023-02-25T05:33:10.491Z,7.50
2023-02-25T05:38:14.934Z,7.50
2023-02-25T05:43:18.075Z,7.40
2023-02-25T05:48:21.164Z,7.40
2023-02-25T05:53:25.647Z,7.40
2023-02-25T05:58:28.717Z,7.40
2023-02-25T06:03:31.827Z,7.40
2023-02-25T06:08:36.351Z,7.30
2023-02-25T06:13:39.424Z,7.30
2023-02-25T06:18:42.532Z,7.20
2023-02-25T06:23:47.031Z,7.10
2023-02-25T06:28:50.120Z,7.10
2023-02-25T06:33:54.985Z,7.00
2023-02-25T06:38:59.666Z,7.00
2023-02-25T06:44:04.282Z,7.00
2023-02-25T06:49:07.365Z,7.00
2023-02-25T06:54:12.069Z,6.90
2023-02-25T06:59:15.172Z,6.90
2023-02-25T07:04:19.870Z,6.90
2023-02-25T07:09:24.453Z,7.00
2023-02-25T07:14:27.788Z,7.00
2023-02-25T07:19:30.945Z,7.00
2023-02-25T07:24:35.523Z,7.10
2023-02-25T07:29:38.599Z,7.10
2023-02-25T07:34:41.736Z,7.10
2023-02-25T07:39:47.710Z,7.10
2023-02-25T07:44:51.954Z,7.10
2023-02-25T07:49:55.057Z,7.20
2023-02-25T07:54:59.516Z,7.10
2023-02-25T08:00:02.679Z,7.10
2023-02-25T08:05:07.181Z,7.10
2023-02-25T08:10:13.689Z,7.10
2023-02-25T08:15:17.261Z,7.10
2023-02-25T08:20:20.709Z,7.20
2023-02-25T08:25:25.128Z,7.20
2023-02-25T08:30:28.482Z,7.30
2023-02-25T08:35:31.971Z,7.30
2023-02-25T08:40:36.457Z,7.40
2023-02-25T08:45:41.770Z,7.50
2023-02-25T08:50:44.870Z,7.60
2023-02-25T08:55:49.488Z,7.70
2023-02-25T09:00:55.240Z,7.80
2023-02-25T09:05:58.499Z,7.90
2023-02-25T09:11:06.972Z,8.00
2023-02-25T09:16:10.334Z,8.00
2023-02-25T09:21:14.592Z,8.10
2023-02-25T09:26:19.410Z,8.30
2023-02-25T09:31:23.056Z,8.40
2023-02-25T09:36:26.397Z,8.50
2023-02-25T09:41:36.462Z,8.60
2023-02-25T09:46:46.540Z,8.70
2023-02-25T09:51:56.663Z,8.80
2023-02-25T09:57:04.089Z,8.90
2023-02-25T10:02:22.124Z,8.90
2023-02-25T10:07:33.722Z,9.00
2023-02-25T10:12:47.203Z,8.90
2023-02-25T10:18:12.565Z,8.80
2023-02-25T10:23:29.097Z,8.80
2023-02-25T10:28:34.546Z,8.80
2023-02-25T10:33:40.342Z,8.70
2023-02-25T10:38:46.381Z,8.70
2023-02-25T10:43:52.468Z,8.70
2023-02-25T10:48:59.028Z,8.70
2023-02-25T10:54:06.479Z,8.70
2023-02-25T10:59:27.694Z,8.70
2023-02-25T11:04:36.189Z,8.60
2023-02-25T11:09:40.125Z,8.70
2023-02-25T11:14:44.660Z,8.70
2023-02-25T11:19:51.283Z,8.60
2023-02-25T11:24:59.585Z,8.60
2023-02-25T11:30:16.583Z,8.60
2023-02-25T11:35:25.275Z,8.70
2023-02-25T11:40:30.254Z,8.70
2023-02-25T11:45:36.610Z,8.70
2023-02-25T11:50:48.654Z,8.70
2023-02-25T11:56:03.982Z,8.70
2023-02-25T12:01:18.896Z,8.70
2023-02-25T12:06:37.528Z,8.60
2023-02-25T12:12:10.803Z,8.60
2023-02-25T12:17:53.484Z,8.60
2023-02-25T12:23:29.828Z,8.60
2023-02-25T12:28:51.611Z,8.60
2023-02-25T12:34:16.301Z,8.50
2023-02-25T12:39:44.309Z,8.40
2023-02-25T12:45:02.712Z,8.40
2023-02-25T12:50:35.715Z,8.40
2023-02-25T12:55:53.779Z,8.40
2023-02-25T13:01:18.946Z,8.50
2023-02-25T13:07:01.382Z,8.50
2023-02-25T13:12:24.454Z,8.70
2023-02-25T13:17:37.570Z,8.90
2023-02-25T13:22:54.209Z,9.00
2023-02-25T13:28:23.238Z,9.10
2023-02-25T13:33:40.248Z,9.10
2023-02-25T13:39:02.770Z,9.20
2023-02-25T13:44:29.027Z,9.20
2023-02-25T13:50:11.862Z,9.20
2023-02-25T13:55:30.175Z,9.20
2023-02-25T14:00:54.509Z,9.30
2023-02-25T14:06:09.340Z,9.30
2023-02-25T14:11:28.939Z,9.30
2023-02-25T14:16:51.110Z,9.30
2023-02-25T14:22:20.240Z,9.40
2023-02-25T14:27:34.876Z,9.50
2023-02-25T14:33:02.557Z,9.50
2023-02-25T14:38:09.977Z,9.40
2023-02-25T14:43:34.867Z,9.40
2023-02-25T14:48:44.899Z,9.30
2023-02-25T14:54:12.399Z,9.20
2023-02-25T14:59:57.119Z,9.10
2023-02-25T15:05:39.556Z,9.10
2023-02-25T15:11:04.544Z,9.00
2023-02-25T15:16:41.309Z,9.00
2023-02-25T15:21:48.426Z,8.90
2023-02-25T15:26:52.089Z,8.80
2023-02-25T15:32:16.864Z,8.80
2023-02-25T15:37:37.717Z,8.80
2023-02-25T15:42:49.548Z,8.80
2023-02-25T15:48:29.493Z,8.70
2023-02-25T15:53:43.006Z,8.60
2023-02-25T15:58:52.630Z,8.20
2023-02-25T16:03:56.209Z,7.80
2023-02-25T16:09:09.500Z,7.50
2023-02-25T16:14:18.457Z,7.30
2023-02-25T16:19:25.611Z,7.20
2023-02-25T16:24:30.809Z,7.10
2023-02-25T16:29:45.824Z,7.00
2023-02-25T16:34:57.308Z,7.00
2023-02-25T16:40:02.742Z,6.90
2023-02-25T16:45:08.106Z,6.80
2023-02-25T16:50:16.043Z,6.80
2023-02-25T16:55:23.913Z,6.80
2023-02-25T17:00:27.102Z,6.80
2023-02-25T17:05:33.582Z,6.70
2023-02-25T17:10:47.708Z,6.70
2023-02-25T17:15:51.522Z,6.50
2023-02-25T17:21:02.177Z,6.40
2023-02-25T17:26:07.346Z,6.30
2023-02-25T17:31:13.537Z,6.20
2023-02-25T17:36:19.000Z,6.20
2023-02-25T17:41:24.941Z,6.20
2023-02-25T17:46:36.132Z,6.20
2023-02-25T17:51:39.836Z,6.30
2023-02-25T17:56:44.440Z,6.30
2023-02-25T18:01:49.793Z,6.30
2023-02-25T18:06:55.392Z,6.30
2023-02-25T18:12:01.486Z,6.30
2023-02-25T18:17:14.389Z,6.30
2023-02-25T18:22:31.775Z,6.20
2023-02-25T18:27:37.870Z,6.20
2023-02-25T18:32:41.217Z,6.10
2023-02-25T18:37:46.167Z,6.00
2023-02-25T18:42:50.658Z,6.00
2023-02-25T18:47:56.649Z,6.00
2023-02-25T18:53:00.826Z,6.00
2023-02-25T18:58:05.973Z,6.10
2023-02-25T19:03:11.444Z,6.10
2023-02-25T19:08:15.890Z,6.10
2023-02-25T19:13:24.763Z,6.10
2023-02-25T19:18:30.047Z,6.00
2023-02-25T19:23:33.128Z,6.00
2023-02-25T19:28:37.623Z,6.00
2023-02-25T19:33:40.871Z,6.00
2023-02-25T19:38:43.938Z,6.10
2023-02-25T19:43:48.419Z,6.10
2023-02-25T19:48:51.498Z,6.00
2023-02-25T19:53:54.579Z,6.00
2023-02-25T19:58:59.444Z,6.00
2023-02-25T20:04:02.681Z,6.00
2023-02-25T20:09:07.663Z,6.00
2023-02-25T20:14:13.855Z,6.00
2023-02-25T20:19:17.531Z,6.00
2023-02-25T20:24:20.657Z,5.90
2023-02-25T20:29:25.754Z,5.70
2023-02-25T20:34:29.422Z,5.60
2023-02-25T20:39:44.080Z,5.50
2023-02-25T20:44:51.324Z,5.40
2023-02-25T20:49:59.238Z,5.30
2023-02-25T20:55:02.370Z,5.30
2023-02-25T21:00:09.170Z,5.30
2023-02-25T21:05:12.309Z,5.40
2023-02-25T21:10:15.412Z,5.40
2023-02-25T21:15:20.163Z,5.40
2023-02-25T21:20:23.294Z,5.40
2023-02-25T21:25:26.426Z,5.40
2023-02-25T21:30:31.023Z,5.50
2023-02-25T21:35:34.180Z,5.50
2023-02-25T21:40:37.267Z,5.50
2023-02-25T21:45:41.889Z,5.60
2023-02-25T21:50:47.192Z,5.60
2023-02-25T21:55:50.673Z,5.60
2023-02-25T22:00:55.134Z,5.70
2023-02-25T22:05:58.388Z,5.70
2023-02-25T22:11:01.577Z,5.70
2023-02-25T22:16:06.532Z,5.70
2023-02-25T22:21:12.535Z,5.60
2023-02-25T22:26:18.007Z,5.50
2023-02-25T22:31:23.374Z,5.30
2023-02-25T22:36:27.132Z,5.20
2023-02-25T22:41:30.981Z,5.20
2023-02-25T22:46:37.149Z,5.20
2023-02-25T22:51:42.732Z,5.10
2023-02-25T22:56:47.016Z,5.10
2023-02-25T23:01:51.590Z,5.00
2023-02-25T23:06:55.765Z,4.90
2023-02-25T23:11:59.949Z,4.90
2023-02-25T23:17:04.570Z,4.80
2023-02-25T23:22:07.821Z,4.80
2023-02-25T23:27:10.892Z,4.60
2023-02-25T23:32:15.534Z,4.60
2023-02-25T23:37:18.621Z,4.60
2023-02-25T23:42:21.692Z,4.60
2023-02-25T23:47:26.190Z,4.60
2023-02-25T23:52:29.699Z,4.40
2023-02-25T23:57:33.400Z,4.30
